sensor_id;sensor_type;location;lat;lon;timestamp;P1;durP1;ratioP1;P2;durP2;ratioP2
3733;SDS011;1882;52.256;8.874;2022-11-20T00:01:41;7.17;;;4.30;;
3733;SDS011;1882;52.256;8.874;2022-11-20T00:04:15;7.70;;;4.30;;
3733;SDS011;1882;52.256;8.874;2022-11-20T00:06:42;9.60;;;5.10;;
3733;SDS011;1882;52.256;8.874;2022-11-20T00:09:09;7.73;;;4.80;;
3733;SDS011;1882;52.256;8.874;2022-11-20T00:11:41;10.00;;;5.93;;
3733;SDS011;1882;52.256;8.874;2022-11-20T00:14:08;11.37;;;6.60;;
3733;SDS011;1882;52.256;8.874;2022-11-20T00:16:43;13.47;;;7.63;;
3733;SDS011;1882;52.256;8.874;2022-11-20T00:19:10;13.13;;;6.90;;
3733;SDS011;1882;52.256;8.874;2022-11-20T00:21:41;12.67;;;6.90;;
3733;SDS011;1882;52.256;8.874;2022-11-20T00:24:11;11.87;;;6.73;;
3733;SDS011;1882;52.256;8.874;2022-11-20T00:26:40;12.87;;;7.57;;
3733;SDS011;1882;52.256;8.874;2022-11-20T00:29:12;12.03;;;7.40;;
3733;SDS011;1882;52.256;8.874;2022-11-20T00:31:42;13.20;;;7.57;;
3733;SDS011;1882;52.256;8.874;2022-11-20T00:34:11;16.40;;;8.00;;
3733;SDS011;1882;52.256;8.874;2022-11-20T00:36:41;15.20;;;7.93;;
3733;SDS011;1882;52.256;8.874;2022-11-20T00:39:10;17.57;;;8.77;;
3733;SDS011;1882;52.256;8.874;2022-11-20T00:41:40;27.70;;;12.73;;
3733;SDS011;1882;52.256;8.874;2022-11-20T00:44:13;16.23;;;8.60;;
3733;SDS011;1882;52.256;8.874;2022-11-20T00:46:40;13.50;;;7.40;;
3733;SDS011;1882;52.256;8.874;2022-11-20T00:49:13;12.97;;;6.73;;
3733;SDS011;1882;52.256;8.874;2022-11-20T00:51:40;12.00;;;5.30;;
3733;SDS011;1882;52.256;8.874;2022-11-20T00:54:12;8.57;;;5.43;;
3733;SDS011;1882;52.256;8.874;2022-11-20T00:56:38;8.93;;;5.47;;
3733;SDS011;1882;52.256;8.874;2022-11-20T00:59:15;10.73;;;5.37;;
3733;SDS011;1882;52.256;8.874;2022-11-20T01:01:42;16.70;;;8.67;;
3733;SDS011;1882;52.256;8.874;2022-11-20T01:04:09;16.13;;;8.10;;
3733;SDS011;1882;52.256;8.874;2022-11-20T01:06:46;14.37;;;6.73;;
3733;SDS011;1882;52.256;8.874;2022-11-20T01:09:13;11.90;;;5.73;;
3733;SDS011;1882;52.256;8.874;2022-11-20T01:11:43;10.73;;;5.87;;
3733;SDS011;1882;52.256;8.874;2022-11-20T01:14:11;10.80;;;5.67;;
3733;SDS011;1882;52.256;8.874;2022-11-20T01:16:44;10.10;;;5.93;;
3733;SDS011;1882;52.256;8.874;2022-11-20T01:19:21;8.60;;;5.13;;
3733;SDS011;1882;52.256;8.874;2022-11-20T01:21:51;6.57;;;4.33;;
3733;SDS011;1882;52.256;8.874;2022-11-20T01:24:20;12.17;;;5.40;;
3733;SDS011;1882;52.256;8.874;2022-11-20T01:26:48;9.87;;;5.90;;
3733;SDS011;1882;52.256;8.874;2022-11-20T01:29:20;16.27;;;6.90;;
3733;SDS011;1882;52.256;8.874;2022-11-20T01:31:49;14.17;;;7.30;;
3733;SDS011;1882;52.256;8.874;2022-11-20T01:34:17;12.30;;;6.73;;
3733;SDS011;1882;52.256;8.874;2022-11-20T01:36:52;8.67;;;5.30;;
3733;SDS011;1882;52.256;8.874;2022-11-20T01:39:20;10.20;;;5.30;;
3733;SDS011;1882;52.256;8.874;2022-11-20T01:41:49;12.07;;;6.00;;
3733;SDS011;1882;52.256;8.874;2022-11-20T01:47:39;9.93;;;5.97;;
3733;SDS011;1882;52.256;8.874;2022-11-20T01:50:16;14.30;;;6.60;;
3733;SDS011;1882;52.256;8.874;2022-11-20T01:52:46;12.37;;;6.03;;
3733;SDS011;1882;52.256;8.874;2022-11-20T01:55:20;11.50;;;6.77;;
3733;SDS011;1882;52.256;8.874;2022-11-20T01:57:52;19.60;;;8.40;;
3733;SDS011;1882;52.256;8.874;2022-11-20T02:00:19;11.80;;;6.60;;
3733;SDS011;1882;52.256;8.874;2022-11-20T02:03:08;9.73;;;5.63;;
3733;SDS011;1882;52.256;8.874;2022-11-20T02:05:39;10.87;;;5.43;;
3733;SDS011;1882;52.256;8.874;2022-11-20T02:08:09;8.53;;;5.27;;
3733;SDS011;1882;52.256;8.874;2022-11-20T02:10:46;9.47;;;5.23;;
3733;SDS011;1882;52.256;8.874;2022-11-20T02:13:29;7.60;;;4.40;;
3733;SDS011;1882;52.256;8.874;2022-11-20T02:18:43;7.97;;;5.10;;
3733;SDS011;1882;52.256;8.874;2022-11-20T02:26:37;11.07;;;5.90;;
3733;SDS011;1882;52.256;8.874;2022-11-20T02:29:09;11.07;;;6.13;;
3733;SDS011;1882;52.256;8.874;2022-11-20T02:31:37;10.87;;;6.30;;
3733;SDS011;1882;52.256;8.874;2022-11-20T02:34:09;13.07;;;6.50;;
3733;SDS011;1882;52.256;8.874;2022-11-20T02:36:41;10.60;;;5.97;;
3733;SDS011;1882;52.256;8.874;2022-11-20T02:39:09;10.70;;;5.77;;
3733;SDS011;1882;52.256;8.874;2022-11-20T02:41:38;11.23;;;5.80;;
3733;SDS011;1882;52.256;8.874;2022-11-20T02:44:12;9.60;;;5.27;;
3733;SDS011;1882;52.256;8.874;2022-11-20T02:46:41;8.47;;;5.63;;
3733;SDS011;1882;52.256;8.874;2022-11-20T02:49:15;11.40;;;6.20;;
3733;SDS011;1882;52.256;8.874;2022-11-20T02:51:43;14.80;;;6.73;;
3733;SDS011;1882;52.256;8.874;2022-11-20T02:54:10;12.47;;;6.50;;
3733;SDS011;1882;52.256;8.874;2022-11-20T02:56:39;8.77;;;5.43;;
3733;SDS011;1882;52.256;8.874;2022-11-20T02:59:14;12.43;;;6.47;;
3733;SDS011;1882;52.256;8.874;2022-11-20T03:01:41;10.00;;;5.87;;
3733;SDS011;1882;52.256;8.874;2022-11-20T03:04:25;10.90;;;5.97;;
3733;SDS011;1882;52.256;8.874;2022-11-20T03:06:52;11.33;;;6.60;;
3733;SDS011;1882;52.256;8.874;2022-11-20T03:09:18;12.37;;;6.60;;
3733;SDS011;1882;52.256;8.874;2022-11-20T03:11:48;9.10;;;5.40;;
3733;SDS011;1882;52.256;8.874;2022-11-20T03:14:15;9.17;;;5.57;;
3733;SDS011;1882;52.256;8.874;2022-11-20T03:16:41;12.30;;;7.07;;
3733;SDS011;1882;52.256;8.874;2022-11-20T03:19:26;10.33;;;6.17;;
3733;SDS011;1882;52.256;8.874;2022-11-20T03:21:53;12.23;;;5.90;;
3733;SDS011;1882;52.256;8.874;2022-11-20T03:24:19;10.10;;;5.70;;
3733;SDS011;1882;52.256;8.874;2022-11-20T03:26:46;11.50;;;6.73;;
3733;SDS011;1882;52.256;8.874;2022-11-20T03:29:15;10.53;;;6.53;;
3733;SDS011;1882;52.256;8.874;2022-11-20T03:31:42;13.33;;;6.63;;
3733;SDS011;1882;52.256;8.874;2022-11-20T03:34:11;11.13;;;6.23;;
3733;SDS011;1882;52.256;8.874;2022-11-20T03:36:41;10.20;;;5.97;;
3733;SDS011;1882;52.256;8.874;2022-11-20T03:39:11;11.60;;;6.07;;
3733;SDS011;1882;52.256;8.874;2022-11-20T03:41:39;9.23;;;5.63;;
3733;SDS011;1882;52.256;8.874;2022-11-20T03:44:11;13.17;;;6.67;;
3733;SDS011;1882;52.256;8.874;2022-11-20T03:46:40;11.23;;;5.60;;
3733;SDS011;1882;52.256;8.874;2022-11-20T03:49:15;10.57;;;6.37;;
3733;SDS011;1882;52.256;8.874;2022-11-20T03:51:41;14.93;;;7.30;;
3733;SDS011;1882;52.256;8.874;2022-11-20T03:54:17;15.53;;;7.20;;
3733;SDS011;1882;52.256;8.874;2022-11-20T03:56:44;15.03;;;7.03;;
3733;SDS011;1882;52.256;8.874;2022-11-20T03:59:13;12.10;;;7.23;;
3733;SDS011;1882;52.256;8.874;2022-11-20T04:01:39;9.10;;;5.90;;
3733;SDS011;1882;52.256;8.874;2022-11-20T04:04:14;9.53;;;5.50;;
3733;SDS011;1882;52.256;8.874;2022-11-20T04:06:41;14.37;;;7.37;;
3733;SDS011;1882;52.256;8.874;2022-11-20T04:09:15;11.83;;;6.93;;
3733;SDS011;1882;52.256;8.874;2022-11-20T04:11:42;11.57;;;7.23;;
3733;SDS011;1882;52.256;8.874;2022-11-20T04:14:15;19.27;;;8.97;;
3733;SDS011;1882;52.256;8.874;2022-11-20T04:16:42;15.13;;;8.03;;
3733;SDS011;1882;52.256;8.874;2022-11-20T04:19:10;15.63;;;8.60;;
3733;SDS011;1882;52.256;8.874;2022-11-20T04:21:41;15.50;;;8.10;;
3733;SDS011;1882;52.256;8.874;2022-11-20T04:24:16;13.67;;;7.80;;
3733;SDS011;1882;52.256;8.874;2022-11-20T04:26:43;13.13;;;7.30;;
3733;SDS011;1882;52.256;8.874;2022-11-20T04:29:10;13.90;;;7.20;;
3733;SDS011;1882;52.256;8.874;2022-11-20T04:31:42;17.07;;;7.77;;
3733;SDS011;1882;52.256;8.874;2022-11-20T04:34:11;14.13;;;7.10;;
3733;SDS011;1882;52.256;8.874;2022-11-20T04:36:41;11.50;;;6.90;;
3733;SDS011;1882;52.256;8.874;2022-11-20T04:39:16;10.40;;;6.40;;
3733;SDS011;1882;52.256;8.874;2022-11-20T04:41:46;12.03;;;6.80;;
3733;SDS011;1882;52.256;8.874;2022-11-20T04:44:13;11.77;;;6.90;;
3733;SDS011;1882;52.256;8.874;2022-11-20T04:46:47;12.77;;;7.50;;
3733;SDS011;1882;52.256;8.874;2022-11-20T04:49:13;15.30;;;7.90;;
3733;SDS011;1882;52.256;8.874;2022-11-20T04:51:40;15.10;;;7.40;;
3733;SDS011;1882;52.256;8.874;2022-11-20T04:54:08;13.87;;;7.83;;
3733;SDS011;1882;52.256;8.874;2022-11-20T04:56:44;16.10;;;8.90;;
3733;SDS011;1882;52.256;8.874;2022-11-20T04:59:11;15.93;;;8.67;;
3733;SDS011;1882;52.256;8.874;2022-11-20T05:01:40;13.83;;;7.77;;
3733;SDS011;1882;52.256;8.874;2022-11-20T05:04:07;16.20;;;7.60;;
3733;SDS011;1882;52.256;8.874;2022-11-20T05:06:44;13.90;;;7.87;;
3733;SDS011;1882;52.256;8.874;2022-11-20T05:09:12;13.00;;;7.80;;
3733;SDS011;1882;52.256;8.874;2022-11-20T05:11:39;14.03;;;7.90;;
3733;SDS011;1882;52.256;8.874;2022-11-20T05:14:05;13.13;;;8.00;;
3733;SDS011;1882;52.256;8.874;2022-11-20T05:16:34;14.47;;;7.60;;
3733;SDS011;1882;52.256;8.874;2022-11-20T05:19:06;18.10;;;8.30;;
3733;SDS011;1882;52.256;8.874;2022-11-20T05:21:46;12.80;;;7.50;;
3733;SDS011;1882;52.256;8.874;2022-11-20T05:24:13;16.97;;;8.73;;
3733;SDS011;1882;52.256;8.874;2022-11-20T05:26:40;16.37;;;8.80;;
3733;SDS011;1882;52.256;8.874;2022-11-20T05:29:11;14.80;;;8.00;;
3733;SDS011;1882;52.256;8.874;2022-11-20T05:31:39;18.00;;;9.30;;
3733;SDS011;1882;52.256;8.874;2022-11-20T05:34:06;17.40;;;9.10;;
3733;SDS011;1882;52.256;8.874;2022-11-20T05:36:35;13.57;;;8.20;;
3733;SDS011;1882;52.256;8.874;2022-11-20T05:39:13;16.67;;;8.60;;
3733;SDS011;1882;52.256;8.874;2022-11-20T05:41:43;19.50;;;9.93;;
3733;SDS011;1882;52.256;8.874;2022-11-20T05:44:13;16.00;;;9.00;;
3733;SDS011;1882;52.256;8.874;2022-11-20T05:46:39;17.70;;;9.27;;
3733;SDS011;1882;52.256;8.874;2022-11-20T05:49:06;20.43;;;9.70;;
3733;SDS011;1882;52.256;8.874;2022-11-20T05:51:42;18.40;;;9.53;;
3733;SDS011;1882;52.256;8.874;2022-11-20T05:54:11;22.50;;;10.77;;
3733;SDS011;1882;52.256;8.874;2022-11-20T05:56:38;16.60;;;9.40;;
3733;SDS011;1882;52.256;8.874;2022-11-20T05:59:10;18.27;;;10.10;;
3733;SDS011;1882;52.256;8.874;2022-11-20T06:01:38;17.73;;;10.57;;
3733;SDS011;1882;52.256;8.874;2022-11-20T06:04:17;19.87;;;10.30;;
3733;SDS011;1882;52.256;8.874;2022-11-20T06:06:51;19.10;;;9.97;;
3733;SDS011;1882;52.256;8.874;2022-11-20T06:09:18;19.87;;;11.07;;
3733;SDS011;1882;52.256;8.874;2022-11-20T06:11:45;23.83;;;11.37;;
3733;SDS011;1882;52.256;8.874;2022-11-20T06:14:19;22.73;;;11.40;;
3733;SDS011;1882;52.256;8.874;2022-11-20T06:16:46;21.70;;;11.90;;
3733;SDS011;1882;52.256;8.874;2022-11-20T06:19:12;22.77;;;11.23;;
3733;SDS011;1882;52.256;8.874;2022-11-20T06:21:47;24.20;;;11.37;;
3733;SDS011;1882;52.256;8.874;2022-11-20T06:24:15;21.50;;;11.60;;
3733;SDS011;1882;52.256;8.874;2022-11-20T06:26:42;20.10;;;10.63;;
3733;SDS011;1882;52.256;8.874;2022-11-20T06:29:19;21.73;;;12.40;;
3733;SDS011;1882;52.256;8.874;2022-11-20T06:31:46;23.60;;;11.47;;
3733;SDS011;1882;52.256;8.874;2022-11-20T06:34:13;21.03;;;11.10;;
3733;SDS011;1882;52.256;8.874;2022-11-20T06:36:39;26.00;;;12.70;;
3733;SDS011;1882;52.256;8.874;2022-11-20T06:39:19;20.00;;;11.63;;
3733;SDS011;1882;52.256;8.874;2022-11-20T06:41:46;22.70;;;12.20;;
3733;SDS011;1882;52.256;8.874;2022-11-20T06:44:30;24.50;;;12.90;;
3733;SDS011;1882;52.256;8.874;2022-11-20T06:46:57;26.23;;;13.03;;
3733;SDS011;1882;52.256;8.874;2022-11-20T06:49:30;24.27;;;12.50;;
3733;SDS011;1882;52.256;8.874;2022-11-20T06:51:58;21.60;;;12.33;;
3733;SDS011;1882;52.256;8.874;2022-11-20T06:54:24;20.07;;;11.43;;
3733;SDS011;1882;52.256;8.874;2022-11-20T06:56:51;20.10;;;11.30;;
3733;SDS011;1882;52.256;8.874;2022-11-20T06:59:18;22.50;;;11.50;;
3733;SDS011;1882;52.256;8.874;2022-11-20T07:01:45;21.40;;;11.37;;
3733;SDS011;1882;52.256;8.874;2022-11-20T07:04:11;22.83;;;11.13;;
3733;SDS011;1882;52.256;8.874;2022-11-20T07:06:38;20.93;;;12.23;;
3733;SDS011;1882;52.256;8.874;2022-11-20T07:09:05;22.30;;;11.00;;
3733;SDS011;1882;52.256;8.874;2022-11-20T07:11:38;19.87;;;11.63;;
3733;SDS011;1882;52.256;8.874;2022-11-20T07:14:04;21.90;;;11.57;;
3733;SDS011;1882;52.256;8.874;2022-11-20T07:16:31;21.00;;;10.17;;
3733;SDS011;1882;52.256;8.874;2022-11-20T07:18:58;24.90;;;12.43;;
3733;SDS011;1882;52.256;8.874;2022-11-20T07:21:24;19.30;;;10.80;;
3733;SDS011;1882;52.256;8.874;2022-11-20T07:23:51;24.13;;;11.97;;
3733;SDS011;1882;52.256;8.874;2022-11-20T07:26:17;22.23;;;11.67;;
3733;SDS011;1882;52.256;8.874;2022-11-20T07:28:45;25.40;;;12.50;;
3733;SDS011;1882;52.256;8.874;2022-11-20T07:31:12;20.73;;;10.50;;
3733;SDS011;1882;52.256;8.874;2022-11-20T07:33:44;21.30;;;10.90;;
3733;SDS011;1882;52.256;8.874;2022-11-20T07:36:11;18.63;;;10.93;;
3733;SDS011;1882;52.256;8.874;2022-11-20T07:38:37;23.77;;;12.33;;
3733;SDS011;1882;52.256;8.874;2022-11-20T07:41:04;19.97;;;10.70;;
3733;SDS011;1882;52.256;8.874;2022-11-20T07:43:32;23.73;;;11.70;;
3733;SDS011;1882;52.256;8.874;2022-11-20T07:46:06;21.17;;;11.40;;
3733;SDS011;1882;52.256;8.874;2022-11-20T07:48:32;24.07;;;11.67;;
3733;SDS011;1882;52.256;8.874;2022-11-20T07:50:59;21.13;;;10.80;;
3733;SDS011;1882;52.256;8.874;2022-11-20T07:53:25;21.70;;;11.57;;
3733;SDS011;1882;52.256;8.874;2022-11-20T07:55:52;22.60;;;11.80;;
3733;SDS011;1882;52.256;8.874;2022-11-20T07:58:19;22.30;;;11.10;;
3733;SDS011;1882;52.256;8.874;2022-11-20T08:00:46;22.30;;;12.30;;
3733;SDS011;1882;52.256;8.874;2022-11-20T08:03:13;23.43;;;12.93;;
3733;SDS011;1882;52.256;8.874;2022-11-20T08:05:42;23.60;;;11.73;;
3733;SDS011;1882;52.256;8.874;2022-11-20T08:08:08;20.83;;;11.50;;
3733;SDS011;1882;52.256;8.874;2022-11-20T08:10:35;19.33;;;11.40;;
3733;SDS011;1882;52.256;8.874;2022-11-20T08:13:02;24.10;;;11.63;;
3733;SDS011;1882;52.256;8.874;2022-11-20T08:15:48;20.50;;;10.73;;
3733;SDS011;1882;52.256;8.874;2022-11-20T08:18:16;15.67;;;8.90;;
3733;SDS011;1882;52.256;8.874;2022-11-20T08:21:02;16.90;;;9.60;;
3733;SDS011;1882;52.256;8.874;2022-11-20T08:23:30;17.43;;;9.80;;
3733;SDS011;1882;52.256;8.874;2022-11-20T08:25:56;18.87;;;9.53;;
3733;SDS011;1882;52.256;8.874;2022-11-20T08:28:23;16.97;;;9.93;;
3733;SDS011;1882;52.256;8.874;2022-11-20T08:30:50;16.40;;;9.40;;
3733;SDS011;1882;52.256;8.874;2022-11-20T08:33:17;19.10;;;10.57;;
3733;SDS011;1882;52.256;8.874;2022-11-20T08:35:44;20.17;;;10.27;;
3733;SDS011;1882;52.256;8.874;2022-11-20T08:38:11;22.10;;;11.50;;
3733;SDS011;1882;52.256;8.874;2022-11-20T08:40:37;22.17;;;11.20;;
3733;SDS011;1882;52.256;8.874;2022-11-20T08:43:04;20.93;;;11.10;;
3733;SDS011;1882;52.256;8.874;2022-11-20T08:45:31;21.23;;;11.67;;
3733;SDS011;1882;52.256;8.874;2022-11-20T08:48:01;21.73;;;12.27;;
3733;SDS011;1882;52.256;8.874;2022-11-20T08:50:30;21.90;;;10.90;;
3733;SDS011;1882;52.256;8.874;2022-11-20T08:53:03;19.43;;;10.40;;
3733;SDS011;1882;52.256;8.874;2022-11-20T08:55:30;18.50;;;10.70;;
3733;SDS011;1882;52.256;8.874;2022-11-20T08:57:57;19.87;;;10.50;;
3733;SDS011;1882;52.256;8.874;2022-11-20T09:00:23;24.73;;;12.07;;
3733;SDS011;1882;52.256;8.874;2022-11-20T09:02:50;22.80;;;11.43;;
3733;SDS011;1882;52.256;8.874;2022-11-20T09:05:18;24.43;;;11.73;;
3733;SDS011;1882;52.256;8.874;2022-11-20T09:07:44;32.13;;;14.60;;
3733;SDS011;1882;52.256;8.874;2022-11-20T09:10:11;27.70;;;13.47;;
3733;SDS011;1882;52.256;8.874;2022-11-20T09:12:53;23.57;;;12.17;;
3733;SDS011;1882;52.256;8.874;2022-11-20T09:15:21;25.40;;;13.10;;
3733;SDS011;1882;52.256;8.874;2022-11-20T09:17:55;25.67;;;12.47;;
3733;SDS011;1882;52.256;8.874;2022-11-20T09:20:24;27.03;;;13.23;;
3733;SDS011;1882;52.256;8.874;2022-11-20T09:22:51;26.30;;;13.03;;
3733;SDS011;1882;52.256;8.874;2022-11-20T09:25:18;21.17;;;11.10;;
3733;SDS011;1882;52.256;8.874;2022-11-20T09:27:44;24.27;;;13.27;;
3733;SDS011;1882;52.256;8.874;2022-11-20T09:30:13;30.60;;;12.33;;
3733;SDS011;1882;52.256;8.874;2022-11-20T09:32:41;27.70;;;14.60;;
3733;SDS011;1882;52.256;8.874;2022-11-20T09:35:08;28.57;;;14.20;;
3733;SDS011;1882;52.256;8.874;2022-11-20T09:37:35;26.17;;;13.10;;
3733;SDS011;1882;52.256;8.874;2022-11-20T09:40:02;30.40;;;14.57;;
3733;SDS011;1882;52.256;8.874;2022-11-20T09:45:07;30.30;;;14.87;;
3733;SDS011;1882;52.256;8.874;2022-11-20T09:56:07;32.80;;;14.63;;
3733;SDS011;1882;52.256;8.874;2022-11-20T09:58:42;29.27;;;14.13;;
3733;SDS011;1882;52.256;8.874;2022-11-20T10:01:12;30.50;;;13.50;;
3733;SDS011;1882;52.256;8.874;2022-11-20T10:09:01;32.87;;;15.13;;
3733;SDS011;1882;52.256;8.874;2022-11-20T10:11:46;35.97;;;15.60;;
3733;SDS011;1882;52.256;8.874;2022-11-20T10:14:34;37.90;;;16.80;;
3733;SDS011;1882;52.256;8.874;2022-11-20T10:17:19;36.87;;;16.00;;
3733;SDS011;1882;52.256;8.874;2022-11-20T10:22:51;41.40;;;18.63;;
3733;SDS011;1882;52.256;8.874;2022-11-20T10:25:39;38.00;;;16.87;;
3733;SDS011;1882;52.256;8.874;2022-11-20T10:31:01;33.30;;;15.17;;
3733;SDS011;1882;52.256;8.874;2022-11-20T10:33:35;37.77;;;16.90;;
3733;SDS011;1882;52.256;8.874;2022-11-20T10:36:26;34.90;;;16.40;;
3733;SDS011;1882;52.256;8.874;2022-11-20T10:39:18;38.57;;;17.13;;
3733;SDS011;1882;52.256;8.874;2022-11-20T10:41:46;41.90;;;21.23;;
3733;SDS011;1882;52.256;8.874;2022-11-20T10:44:17;36.40;;;16.70;;
3733;SDS011;1882;52.256;8.874;2022-11-20T10:47:04;38.77;;;16.17;;
3733;SDS011;1882;52.256;8.874;2022-11-20T10:49:32;35.90;;;16.97;;
3733;SDS011;1882;52.256;8.874;2022-11-20T10:57:46;35.33;;;17.03;;
3733;SDS011;1882;52.256;8.874;2022-11-20T11:00:15;31.60;;;16.10;;
3733;SDS011;1882;52.256;8.874;2022-11-20T11:02:50;33.57;;;15.67;;
3733;SDS011;1882;52.256;8.874;2022-11-20T11:07:54;33.77;;;16.40;;
3733;SDS011;1882;52.256;8.874;2022-11-20T11:10:32;37.20;;;17.13;;
3733;SDS011;1882;52.256;8.874;2022-11-20T11:13:07;35.00;;;15.83;;
3733;SDS011;1882;52.256;8.874;2022-11-20T11:15:46;33.40;;;15.93;;
3733;SDS011;1882;52.256;8.874;2022-11-20T11:18:22;35.67;;;17.03;;
3733;SDS011;1882;52.256;8.874;2022-11-20T11:20:50;30.87;;;15.73;;
3733;SDS011;1882;52.256;8.874;2022-11-20T11:23:28;31.10;;;15.83;;
3733;SDS011;1882;52.256;8.874;2022-11-20T11:25:57;36.13;;;16.63;;
3733;SDS011;1882;52.256;8.874;2022-11-20T11:28:25;37.97;;;17.67;;
3733;SDS011;1882;52.256;8.874;2022-11-20T11:30:54;35.43;;;16.57;;
3733;SDS011;1882;52.256;8.874;2022-11-20T11:33:22;33.37;;;15.73;;
3733;SDS011;1882;52.256;8.874;2022-11-20T11:35:51;36.00;;;16.73;;
3733;SDS011;1882;52.256;8.874;2022-11-20T11:38:21;35.70;;;16.80;;
3733;SDS011;1882;52.256;8.874;2022-11-20T11:41:54;26.93;;;14.80;;
3733;SDS011;1882;52.256;8.874;2022-11-20T11:46:59;31.30;;;15.00;;
3733;SDS011;1882;52.256;8.874;2022-11-20T11:49:26;27.53;;;14.00;;
3733;SDS011;1882;52.256;8.874;2022-11-20T11:57:20;23.90;;;13.13;;
3733;SDS011;1882;52.256;8.874;2022-11-20T12:00:01;26.60;;;13.90;;
3733;SDS011;1882;52.256;8.874;2022-11-20T12:02:38;22.27;;;12.37;;
3733;SDS011;1882;52.256;8.874;2022-11-20T12:08:05;24.17;;;13.43;;
3733;SDS011;1882;52.256;8.874;2022-11-20T12:13:53;28.40;;;14.10;;
3733;SDS011;1882;52.256;8.874;2022-11-20T12:16:21;30.77;;;15.37;;
3733;SDS011;1882;52.256;8.874;2022-11-20T12:18:49;25.40;;;13.63;;
3733;SDS011;1882;52.256;8.874;2022-11-20T12:27:00;27.60;;;14.13;;
3733;SDS011;1882;52.256;8.874;2022-11-20T12:43:19;23.20;;;12.03;;
3733;SDS011;1882;52.256;8.874;2022-11-20T12:54:59;24.77;;;12.33;;
3733;SDS011;1882;52.256;8.874;2022-11-20T12:57:57;48.80;;;22.37;;
3733;SDS011;1882;52.256;8.874;2022-11-20T13:00:24;39.63;;;20.10;;
3733;SDS011;1882;52.256;8.874;2022-11-20T13:08:29;22.60;;;12.10;;
3733;SDS011;1882;52.256;8.874;2022-11-20T13:11:12;24.03;;;13.83;;
3733;SDS011;1882;52.256;8.874;2022-11-20T13:16:48;25.37;;;12.87;;
3733;SDS011;1882;52.256;8.874;2022-11-20T13:19:18;27.10;;;13.77;;
3733;SDS011;1882;52.256;8.874;2022-11-20T13:21:46;24.93;;;13.33;;
3733;SDS011;1882;52.256;8.874;2022-11-20T13:29:35;23.53;;;12.27;;
3733;SDS011;1882;52.256;8.874;2022-11-20T13:34:34;23.73;;;12.37;;
3733;SDS011;1882;52.256;8.874;2022-11-20T13:37:02;30.70;;;11.90;;
3733;SDS011;1882;52.256;8.874;2022-11-20T13:39:34;20.47;;;11.60;;
3733;SDS011;1882;52.256;8.874;2022-11-20T13:44:38;21.63;;;11.37;;
3733;SDS011;1882;52.256;8.874;2022-11-20T13:49:49;21.67;;;12.40;;
3733;SDS011;1882;52.256;8.874;2022-11-20T14:00:32;26.50;;;12.97;;
3733;SDS011;1882;52.256;8.874;2022-11-20T14:05:36;22.63;;;12.03;;
3733;SDS011;1882;52.256;8.874;2022-11-20T14:08:06;23.00;;;12.10;;
3733;SDS011;1882;52.256;8.874;2022-11-20T14:10:37;21.03;;;11.10;;
3733;SDS011;1882;52.256;8.874;2022-11-20T14:13:18;19.20;;;10.93;;
3733;SDS011;1882;52.256;8.874;2022-11-20T14:15:46;20.93;;;11.03;;
3733;SDS011;1882;52.256;8.874;2022-11-20T14:18:14;21.13;;;11.70;;
3733;SDS011;1882;52.256;8.874;2022-11-20T14:20:45;15.87;;;10.10;;
3733;SDS011;1882;52.256;8.874;2022-11-20T14:23:12;23.23;;;12.10;;
3733;SDS011;1882;52.256;8.874;2022-11-20T14:25:41;20.60;;;12.00;;
3733;SDS011;1882;52.256;8.874;2022-11-20T14:28:18;23.13;;;12.00;;
3733;SDS011;1882;52.256;8.874;2022-11-20T14:30:49;20.80;;;11.57;;
3733;SDS011;1882;52.256;8.874;2022-11-20T14:33:17;24.60;;;12.60;;
3733;SDS011;1882;52.256;8.874;2022-11-20T14:35:44;23.47;;;12.33;;
3733;SDS011;1882;52.256;8.874;2022-11-20T14:38:14;24.47;;;12.83;;
3733;SDS011;1882;52.256;8.874;2022-11-20T14:40:42;22.80;;;12.00;;
3733;SDS011;1882;52.256;8.874;2022-11-20T14:43:22;26.00;;;13.57;;
3733;SDS011;1882;52.256;8.874;2022-11-20T14:46:03;23.77;;;12.73;;
3733;SDS011;1882;52.256;8.874;2022-11-20T14:48:39;26.73;;;13.07;;
3733;SDS011;1882;52.256;8.874;2022-11-20T14:51:11;27.60;;;13.77;;
3733;SDS011;1882;52.256;8.874;2022-11-20T14:53:49;27.13;;;13.90;;
3733;SDS011;1882;52.256;8.874;2022-11-20T14:56:20;25.07;;;13.63;;
3733;SDS011;1882;52.256;8.874;2022-11-20T14:58:55;31.17;;;14.20;;
3733;SDS011;1882;52.256;8.874;2022-11-20T15:01:28;24.43;;;13.03;;
3733;SDS011;1882;52.256;8.874;2022-11-20T15:06:32;21.13;;;11.47;;
3733;SDS011;1882;52.256;8.874;2022-11-20T15:08:59;24.33;;;12.20;;
3733;SDS011;1882;52.256;8.874;2022-11-20T15:11:31;23.13;;;11.90;;
3733;SDS011;1882;52.256;8.874;2022-11-20T15:14:03;27.50;;;12.77;;
3733;SDS011;1882;52.256;8.874;2022-11-20T15:16:31;24.93;;;12.63;;
3733;SDS011;1882;52.256;8.874;2022-11-20T15:18:58;25.00;;;12.80;;
3733;SDS011;1882;52.256;8.874;2022-11-20T15:21:26;22.87;;;12.37;;
3733;SDS011;1882;52.256;8.874;2022-11-20T15:23:53;24.10;;;12.30;;
3733;SDS011;1882;52.256;8.874;2022-11-20T15:26:26;22.03;;;11.67;;
3733;SDS011;1882;52.256;8.874;2022-11-20T15:28:54;24.33;;;11.67;;
3733;SDS011;1882;52.256;8.874;2022-11-20T15:31:21;22.73;;;11.37;;
3733;SDS011;1882;52.256;8.874;2022-11-20T15:33:49;18.00;;;10.13;;
3733;SDS011;1882;52.256;8.874;2022-11-20T15:36:20;20.57;;;10.87;;
3733;SDS011;1882;52.256;8.874;2022-11-20T15:38:47;21.70;;;9.80;;
3733;SDS011;1882;52.256;8.874;2022-11-20T15:41:13;19.00;;;9.97;;
3733;SDS011;1882;52.256;8.874;2022-11-20T15:43:40;17.90;;;9.77;;
3733;SDS011;1882;52.256;8.874;2022-11-20T15:46:09;20.53;;;9.57;;
3733;SDS011;1882;52.256;8.874;2022-11-20T15:48:43;16.30;;;9.33;;
3733;SDS011;1882;52.256;8.874;2022-11-20T15:51:48;19.30;;;10.43;;
3733;SDS011;1882;52.256;8.874;2022-11-20T15:54:19;18.17;;;10.03;;
3733;SDS011;1882;52.256;8.874;2022-11-20T15:56:50;19.57;;;10.30;;
3733;SDS011;1882;52.256;8.874;2022-11-20T15:59:20;22.80;;;9.50;;
3733;SDS011;1882;52.256;8.874;2022-11-20T16:01:47;17.27;;;9.40;;
3733;SDS011;1882;52.256;8.874;2022-11-20T16:04:16;16.13;;;8.60;;
3733;SDS011;1882;52.256;8.874;2022-11-20T16:06:46;15.60;;;8.17;;
3733;SDS011;1882;52.256;8.874;2022-11-20T16:09:14;18.63;;;9.00;;
3733;SDS011;1882;52.256;8.874;2022-11-20T16:11:41;16.30;;;8.20;;
3733;SDS011;1882;52.256;8.874;2022-11-20T16:14:10;16.07;;;8.13;;
3733;SDS011;1882;52.256;8.874;2022-11-20T16:16:59;13.50;;;8.13;;
3733;SDS011;1882;52.256;8.874;2022-11-20T16:19:25;14.80;;;8.50;;
3733;SDS011;1882;52.256;8.874;2022-11-20T16:21:52;17.90;;;9.20;;
3733;SDS011;1882;52.256;8.874;2022-11-20T16:24:25;17.27;;;9.27;;
3733;SDS011;1882;52.256;8.874;2022-11-20T16:26:57;18.13;;;9.83;;
3733;SDS011;1882;52.256;8.874;2022-11-20T16:29:24;20.03;;;10.37;;
3733;SDS011;1882;52.256;8.874;2022-11-20T16:31:50;24.00;;;10.00;;
3733;SDS011;1882;52.256;8.874;2022-11-20T16:34:17;26.60;;;12.67;;
3733;SDS011;1882;52.256;8.874;2022-11-20T16:36:44;31.03;;;15.20;;
3733;SDS011;1882;52.256;8.874;2022-11-20T16:39:14;23.50;;;12.77;;
3733;SDS011;1882;52.256;8.874;2022-11-20T16:41:52;35.13;;;17.40;;
3733;SDS011;1882;52.256;8.874;2022-11-20T16:44:19;117.93;;;42.00;;
3733;SDS011;1882;52.256;8.874;2022-11-20T16:46:49;39.93;;;17.00;;
3733;SDS011;1882;52.256;8.874;2022-11-20T16:49:20;36.33;;;17.27;;
3733;SDS011;1882;52.256;8.874;2022-11-20T16:54:38;33.37;;;15.13;;
3733;SDS011;1882;52.256;8.874;2022-11-20T16:57:04;20.40;;;11.40;;
3733;SDS011;1882;52.256;8.874;2022-11-20T16:59:31;30.53;;;14.30;;
3733;SDS011;1882;52.256;8.874;2022-11-20T17:01:58;26.63;;;12.13;;
3733;SDS011;1882;52.256;8.874;2022-11-20T17:04:31;27.37;;;12.50;;
3733;SDS011;1882;52.256;8.874;2022-11-20T17:07:01;29.33;;;13.70;;
3733;SDS011;1882;52.256;8.874;2022-11-20T17:09:33;28.63;;;13.13;;
3733;SDS011;1882;52.256;8.874;2022-11-20T17:12:00;21.57;;;11.03;;
3733;SDS011;1882;52.256;8.874;2022-11-20T17:14:27;24.80;;;12.20;;
3733;SDS011;1882;52.256;8.874;2022-11-20T17:16:53;19.43;;;11.37;;
3733;SDS011;1882;52.256;8.874;2022-11-20T17:19:20;25.57;;;11.30;;